This is the latest recevied weather packets stored in our database for station/object IW1AXR-3. If no packets are shown the sender has not sent any weather packets the latest 10 day(s).
| Time | Temp. | Humidity | Pressure | Rain* | Wind** | Luminosity | Snow |
|---|---|---|---|---|---|---|---|
| 1777080143 | 8.89° C | 60% | 1013.7 hPa | - | - | - | - |
| 1777078292 | 10° C | 56% | 1013.8 hPa | - | - | - | - |
| 1777077679 | 10° C | 56% | 1013.9 hPa | - | - | - | - |
| 1777074523 | 11.67° C | 48% | 1014.1 hPa | - | - | - | - |
| 1777073298 | 11.67° C | 49% | 1014.1 hPa | - | - | - | - |
| 1777072682 | 11.67° C | 48% | 1014.2 hPa | - | - | - | - |
| 1777072043 | 11.67° C | 48% | 1014.1 hPa | - | - | - | - |
| 1777070201 | 12.22° C | 46% | 1014.1 hPa | - | - | - | - |
| 1777069591 | 12.78° C | 45% | 1014.1 hPa | - | - | - | - |
| 1777068969 | 12.22° C | 47% | 1014.1 hPa | - | - | - | - |
| 1777068361 | 12.78° C | 45% | 1014.1 hPa | - | - | - | - |
| 1777067740 | 12.78° C | 48% | 1014.1 hPa | - | - | - | - |
| 1777067124 | 12.78° C | 45% | 1014.1 hPa | - | - | - | - |
| 1777066149 | 12.78° C | 50% | 1014.2 hPa | - | - | - | - |
| 1777064928 | 13.33° C | 49% | 1014.1 hPa | - | - | - | - |
| 1777064291 | 13.33° C | 51% | 1014.1 hPa | - | - | - | - |
| 1777063678 | 13.33° C | 53% | 1014.1 hPa | - | - | - | - |
| 1777062463 | 13.89° C | 55% | 1014 hPa | - | - | - | - |
| 1777061854 | 13.89° C | 57% | 1014 hPa | - | - | - | - |
| 1777061246 | 14.44° C | 55% | 1013.9 hPa | - | - | - | - |
| 1777057602 | 14.44° C | 71% | 1013.6 hPa | - | - | - | - |
| 1777056997 | 14.44° C | 74% | 1013.5 hPa | - | - | - | - |
| 1777056391 | 14.44° C | 73% | 1013.4 hPa | - | - | - | - |
* Rain since midnight (hover to see other rain measurements)
** Current wind speed in m/s (hover to see current wind gust speed)